Terminal Aerodrome Forecast
Issued by NWS

Current Version | Previous Version | Graphics & Text | Print | Product List | Glossary On
Versions: 1 2 3 4 5 6 7 8 9 10 11 12 13 14 15 16 17 18 19 20 21 22 23 24 25 26 27 28 29
425
FTUS41 KILN 281513 AAB
TAFLUK
TAF AMD
KLUK 281513Z 2815/2912 28004KT 6SM BR BKN035
      TEMPO 2815/2818 OVC018
     FM281800 22004KT P6SM BKN040 BKN150
     FM281900 22004KT P6SM VCTS BKN040CB BKN150
     FM290100 VRB02KT P6SM SCT040 BKN150
     FM290800 VRB02KT 3SM BR BKN150=

USA.gov is the U.S. government's official web portal to all federal, state and local government web resources and services.